createdAt,value
2022-12-03T00:03:00.361Z,101133.53
2022-12-03T00:09:05.457Z,101156.47
2022-12-03T00:15:08.222Z,101169.66
2022-12-03T00:21:10.707Z,101116.66
2022-12-03T00:27:13.236Z,101169.47
2022-12-03T00:33:15.650Z,101119.72
2022-12-03T00:39:21.401Z,101136.16
2022-12-03T00:45:23.610Z,101125.72
2022-12-03T00:51:26.031Z,101184.25
2022-12-03T00:57:30.538Z,101151.63
2022-12-03T01:03:35.356Z,101174.41
2022-12-03T01:09:37.518Z,101194.41
2022-12-03T01:15:39.974Z,101184.56
2022-12-03T01:21:45.178Z,101196.56
2022-12-03T01:27:47.980Z,101194.06
2022-12-03T01:33:50.425Z,101192.63
2022-12-03T01:39:57.781Z,101202.19
2022-12-03T01:46:00.313Z,101148.78
2022-12-03T01:52:02.778Z,101209.13
2022-12-03T01:58:05.288Z,101205.00
2022-12-03T02:04:09.764Z,101218.84
2022-12-03T02:10:16.202Z,101203.50
2022-12-03T02:16:22.475Z,101221.47
2022-12-03T02:22:56.334Z,101212.03
2022-12-03T02:28:58.811Z,101179.75
2022-12-03T02:35:02.741Z,101180.78
2022-12-03T02:41:09.745Z,101203.50
2022-12-03T02:47:12.280Z,101192.50
2022-12-03T02:53:19.752Z,101223.41
2022-12-03T02:59:22.220Z,101157.56
2022-12-03T03:05:28.042Z,101227.75
2022-12-03T03:11:30.151Z,101221.22
2022-12-03T03:17:33.610Z,101226.31
2022-12-03T03:23:36.084Z,101224.44
2022-12-03T03:29:38.595Z,101223.53
2022-12-03T03:35:42.021Z,101174.06
2022-12-03T03:41:46.503Z,101239.72
2022-12-03T03:47:51.083Z,101235.63
2022-12-03T03:53:58.992Z,101230.63
2022-12-03T04:00:10.227Z,101195.88
2022-12-03T04:06:13.517Z,101237.88
2022-12-03T04:12:34.065Z,101134.81
2022-12-03T04:18:45.552Z,101228.44
2022-12-03T04:24:48.030Z,101248.19
2022-12-03T04:30:52.534Z,101251.16
2022-12-03T04:37:00.926Z,101261.53
2022-12-03T04:43:08.816Z,101257.75
2022-12-03T04:49:13.997Z,101276.72
2022-12-03T04:55:16.435Z,101262.38
2022-12-03T05:01:18.912Z,101277.66
2022-12-03T05:07:21.383Z,101275.03
2022-12-03T05:13:25.851Z,101278.63
2022-12-03T05:19:48.377Z,101245.25
2022-12-03T05:25:52.874Z,101298.50
2022-12-03T05:31:57.183Z,101297.09
2022-12-03T05:37:59.872Z,101307.00
2022-12-03T05:44:02.308Z,101280.13
2022-12-03T05:50:07.599Z,101256.09
2022-12-03T05:56:13.022Z,101302.84
2022-12-03T06:02:17.921Z,101230.13
2022-12-03T06:08:20.178Z,101284.09
2022-12-03T06:14:24.737Z,101328.78
2022-12-03T06:20:29.205Z,101332.84
2022-12-03T06:26:31.715Z,101275.22
2022-12-03T06:32:34.134Z,101328.28
2022-12-03T06:38:36.602Z,101293.53
2022-12-03T06:44:43.543Z,101331.75
2022-12-03T06:50:45.660Z,101272.41
2022-12-03T06:56:53.957Z,101350.69
2022-12-03T07:02:56.642Z,101348.03
2022-12-03T07:08:59.038Z,101351.97
2022-12-03T07:15:04.725Z,101352.75
2022-12-03T07:21:06.997Z,101347.66
2022-12-03T07:27:12.491Z,101351.34
2022-12-03T07:33:16.011Z,101349.78
2022-12-03T07:39:21.468Z,101334.72
2022-12-03T07:45:27.145Z,101296.13
2022-12-03T07:51:34.317Z,101304.50
2022-12-03T07:57:36.931Z,101352.97
2022-12-03T08:03:40.593Z,101345.53
2022-12-03T08:09:47.752Z,101281.13
2022-12-03T08:16:06.583Z,101364.84
2022-12-03T08:22:45.104Z,101373.13
2022-12-03T08:28:45.751Z,101370.81
2022-12-03T08:34:48.039Z,101376.59
2022-12-03T08:40:53.506Z,101371.56
2022-12-03T08:47:15.332Z,101366.31
2022-12-03T08:54:01.930Z,101343.03
2022-12-03T09:00:24.510Z,101230.19
2022-12-03T09:06:28.712Z,101332.75
2022-12-03T09:12:31.281Z,101367.88
2022-12-03T09:18:36.390Z,101351.19
2022-12-03T09:24:41.288Z,101356.19
2022-12-03T09:30:43.716Z,101370.94
2022-12-03T09:36:48.107Z,101318.59
2022-12-03T09:42:53.693Z,101328.94
2022-12-03T09:49:06.621Z,101343.53
2022-12-03T09:55:22.695Z,101368.75
2022-12-03T10:01:35.561Z,101374.09
2022-12-03T10:07:38.691Z,101340.91
2022-12-03T10:13:42.147Z,101360.19
2022-12-03T10:19:45.636Z,101315.91
2022-12-03T10:25:56.140Z,101363.03
2022-12-03T10:32:06.680Z,101356.06
2022-12-03T10:38:32.653Z,101354.31
2022-12-03T10:44:37.811Z,101326.91
2022-12-03T10:51:02.456Z,101282.84
2022-12-03T10:57:05.873Z,101352.84
2022-12-03T11:03:22.299Z,101281.25
2022-12-03T11:09:29.902Z,101348.34
2022-12-03T11:15:54.716Z,101339.84
2022-12-03T11:22:08.980Z,101356.06
2022-12-03T11:28:13.257Z,101353.41
2022-12-03T11:34:39.751Z,101146.38
2022-12-03T11:41:07.570Z,101360.91
2022-12-03T11:47:18.154Z,101380.28
2022-12-03T11:53:27.600Z,101342.88
2022-12-03T11:59:33.125Z,101367.50
2022-12-03T12:06:09.708Z,101380.13
2022-12-03T12:12:29.230Z,101361.00
2022-12-03T12:18:35.701Z,101389.13
2022-12-03T12:24:47.216Z,101360.75
2022-12-03T12:30:49.687Z,101388.19
2022-12-03T12:36:53.144Z,101400.34
2022-12-03T12:42:58.662Z,101395.72
2022-12-03T12:49:03.001Z,101390.38
2022-12-03T12:55:10.677Z,101338.00
2022-12-03T13:01:21.181Z,101390.22
2022-12-03T13:07:23.638Z,101371.56
2022-12-03T13:13:44.200Z,101384.03
2022-12-03T13:20:00.790Z,101390.22
2022-12-03T13:26:36.026Z,101401.03
2022-12-03T13:32:44.360Z,101408.78
2022-12-03T13:38:53.278Z,101405.41
2022-12-03T13:44:57.855Z,101409.16
2022-12-03T13:51:14.374Z,101395.91
2022-12-03T13:57:18.450Z,101427.81
2022-12-03T14:03:24.359Z,101427.06
2022-12-03T14:09:26.822Z,101371.31
2022-12-03T14:15:29.339Z,101438.16
2022-12-03T14:21:31.761Z,101395.09
2022-12-03T14:27:35.564Z,101442.72
2022-12-03T14:33:37.710Z,101427.19
2022-12-03T14:39:40.185Z,101445.34
2022-12-03T14:45:45.702Z,101459.88
2022-12-03T14:51:50.044Z,101472.56
2022-12-03T14:57:52.631Z,101466.81
2022-12-03T15:03:55.068Z,101469.84
2022-12-03T15:09:57.804Z,101433.97
2022-12-03T15:16:08.108Z,101328.59
2022-12-03T15:22:10.572Z,101504.09
2022-12-03T15:28:13.043Z,101469.75
2022-12-03T15:34:21.830Z,101492.00
2022-12-03T15:40:26.031Z,101513.44
2022-12-03T15:46:29.627Z,101495.75
2022-12-03T15:52:34.003Z,101447.94
2022-12-03T15:58:39.490Z,101464.06
2022-12-03T16:04:41.936Z,101531.69
2022-12-03T16:10:44.413Z,101399.94
2022-12-03T16:16:47.882Z,101520.94
2022-12-03T16:22:50.389Z,101514.41
2022-12-03T16:28:53.822Z,101395.69
2022-12-03T16:34:59.339Z,101488.69
2022-12-03T16:41:02.776Z,101447.34
2022-12-03T16:47:05.265Z,101531.44
2022-12-03T16:53:07.738Z,101543.75
2022-12-03T16:59:10.236Z,101539.09
2022-12-03T17:05:17.692Z,101512.81
2022-12-03T17:11:21.789Z,101555.94
2022-12-03T17:17:25.676Z,101541.69
2022-12-03T17:23:28.145Z,101556.66
2022-12-03T17:29:30.672Z,101559.38
2022-12-03T17:35:34.835Z,101559.84
2022-12-03T17:41:42.861Z,101552.19
2022-12-03T17:47:45.054Z,101576.47
2022-12-03T17:53:47.505Z,101574.53
2022-12-03T18:00:01.333Z,101571.78
2022-12-03T18:06:07.732Z,101379.41
2022-12-03T18:12:16.024Z,101580.66
2022-12-03T18:18:18.518Z,101585.03
2022-12-03T18:24:28.016Z,101577.53
2022-12-03T18:30:30.495Z,101547.16
2022-12-03T18:36:37.001Z,101420.53
2022-12-03T18:42:39.505Z,101547.72
2022-12-03T18:48:46.984Z,101543.69
2022-12-03T18:54:50.528Z,101552.28
2022-12-03T19:00:56.039Z,101517.06
2022-12-03T19:06:58.401Z,101568.13
2022-12-03T19:13:00.870Z,101573.81
2022-12-03T19:19:09.336Z,101543.34
2022-12-03T19:25:14.016Z,101579.28
2022-12-03T19:31:18.324Z,101590.06
2022-12-03T19:37:20.807Z,101590.38
2022-12-03T19:43:26.295Z,101597.72
2022-12-03T19:49:28.721Z,101554.66
2022-12-03T19:55:31.195Z,101589.22
2022-12-03T20:01:41.786Z,101582.59
2022-12-03T20:07:44.235Z,101602.16
2022-12-03T20:13:50.078Z,101596.97
2022-12-03T20:19:53.582Z,101494.56
2022-12-03T20:25:56.620Z,101561.94
2022-12-03T20:32:00.226Z,101606.56
2022-12-03T20:38:04.560Z,101556.97
2022-12-03T20:44:08.120Z,101584.09
2022-12-03T20:50:10.603Z,101599.59
2022-12-03T20:56:22.111Z,101611.06
2022-12-03T21:02:24.704Z,101597.44
2022-12-03T21:08:40.576Z,101619.66
2022-12-03T21:14:44.572Z,101581.28
2022-12-03T21:20:49.039Z,101613.63
2022-12-03T21:26:51.540Z,101601.16
2022-12-03T21:32:54.019Z,101595.91
2022-12-03T21:38:59.473Z,101586.78
2022-12-03T21:45:04.926Z,101606.13
2022-12-03T21:51:10.440Z,101611.81
2022-12-03T21:57:12.938Z,101604.06
2022-12-03T22:03:15.481Z,101590.09
2022-12-03T22:09:20.542Z,101594.81
2022-12-03T22:15:27.336Z,101577.53
2022-12-03T22:21:33.051Z,101549.38
2022-12-03T22:27:36.348Z,101569.03
2022-12-03T22:33:39.824Z,101546.72
2022-12-03T22:39:42.305Z,101556.50
2022-12-03T22:45:44.734Z,101517.72
2022-12-03T22:51:48.189Z,101554.31
2022-12-03T22:57:50.632Z,101586.63
2022-12-03T23:03:55.580Z,101538.50
2022-12-03T23:09:58.933Z,101555.38
2022-12-03T23:16:04.192Z,101570.94
2022-12-03T23:22:06.534Z,101492.72
2022-12-03T23:28:11.013Z,101586.63
2022-12-03T23:34:16.098Z,101588.63
2022-12-03T23:40:18.996Z,101548.31
2022-12-03T23:46:28.191Z,101580.94
2022-12-03T23:52:30.978Z,101591.25
2022-12-03T23:58:34.434Z,101579.84
